Time;durP1;ratioP1;P1;durP2;ratioP2;P2;SDS_P1;SDS_P2;PMS_P1;PMS_P2;Temp;Humidity;BMP_temperature;BMP_pressure;BME280_temperature;BME280_humidity;BME280_pressure;Samples;Min_cycle;Max_cycle;Signal;HPM_P1;HPM_P2
2021/08/12 00:02:08;;;;;;;65.78;39.23;;;;;;;22.02;83.07;99571.30;1725836;83;21791;-83
2021/08/12 00:05:15;;;;;;;70.52;38.67;;;;;;;22.05;83.01;99584.66;1726988;83;21311;-83
2021/08/12 00:08:21;;;;;;;42.98;22.32;;;;;;;22.10;82.78;99576.89;1726622;83;21254;-82
2021/08/12 00:11:26;;;;;;;33.05;15.10;;;;;;;22.16;82.45;99582.27;1726436;83;21310;-82
2021/08/12 00:14:32;;;;;;;37.05;13.95;;;;;;;22.23;82.08;99583.41;1725519;82;21839;-83
2021/08/12 00:17:38;;;;;;;31.27;13.80;;;;;;;22.29;81.81;99578.70;1717555;83;21375;-82
2021/08/12 00:20:44;;;;;;;32.38;15.08;;;;;;;22.36;81.48;99584.32;1717164;83;21399;-83
2021/08/12 00:23:50;;;;;;;36.85;17.25;;;;;;;22.43;81.15;99592.42;1716647;83;21341;-84
2021/08/12 00:26:56;;;;;;;43.38;19.07;;;;;;;22.48;80.89;99588.26;1716141;83;21704;-83
2021/08/12 00:30:02;;;;;;;35.60;18.80;;;;;;;22.54;80.71;99592.77;1716173;83;21311;-83
2021/08/12 00:33:07;;;;;;;47.73;18.40;;;;;;;22.56;80.56;99586.34;1717590;83;21323;-83
2021/08/12 00:36:12;;;;;;;37.45;18.62;;;;;;;22.59;80.54;99588.60;1717600;83;21169;-83
2021/08/12 00:39:19;;;;;;;35.70;19.52;;;;;;;22.60;80.45;99594.45;1716571;83;21239;-83
2021/08/12 00:42:26;;;;;;;30.82;18.05;;;;;;;22.62;80.43;99588.03;1717091;83;21640;-83
2021/08/12 00:45:33;;;;;;;35.75;17.85;;;;;;;22.63;80.43;99587.47;1717543;83;21269;-81
2021/08/12 00:48:39;;;;;;;40.70;18.30;;;;;;;22.61;80.39;99598.08;1717665;83;21321;-84
2021/08/12 00:51:45;;;;;;;37.33;17.48;;;;;;;22.59;80.46;99598.36;1716919;83;21870;-84
2021/08/12 00:54:50;;;;;;;31.40;16.23;;;;;;;22.58;80.50;99592.47;1716254;83;21208;-83
2021/08/12 00:57:55;;;;;;;26.17;15.05;;;;;;;22.56;80.70;99591.09;1716218;83;21323;-82
2021/08/12 01:01:00;;;;;;;30.00;16.02;;;;;;;22.53;80.85;99595.80;1716811;83;21212;-83
2021/08/12 01:04:07;;;;;;;26.15;15.48;;;;;;;22.50;80.99;99596.37;1717471;83;21307;-83
2021/08/12 01:07:36;;;;;;;26.37;15.70;;;;;;;22.47;81.33;99594.11;1717373;83;21838;-83
2021/08/12 01:10:51;;;;;;;26.57;15.68;;;;;;;22.44;81.54;99594.09;1717484;83;21312;-83
2021/08/12 01:14:33;;;;;;;33.15;17.02;;;;;;;22.40;81.80;99590.20;1716093;83;21315;-83
2021/08/12 01:17:42;;;;;;;26.62;14.47;;;;;;;22.36;82.13;99589.06;1717570;83;21847;-82
2021/08/12 01:21:01;;;;;;;32.73;14.50;;;;;;;22.31;82.51;99591.82;1717596;83;21355;-83
2021/08/12 01:24:09;;;;;;;33.08;13.90;;;;;;;22.27;82.81;99590.68;1717165;83;21327;-82
2021/08/12 01:27:16;;;;;;;31.65;13.43;;;;;;;22.24;83.10;99588.42;1717596;83;21327;-83
2021/08/12 01:30:25;;;;;;;33.10;11.78;;;;;;;22.20;83.43;99584.78;1718328;83;21851;-83
2021/08/12 01:33:53;;;;;;;21.27;11.40;;;;;;;22.15;83.76;99581.97;1717941;83;21299;-83
2021/08/12 01:36:59;;;;;;;22.32;10.50;;;;;;;22.11;84.21;99586.42;1718316;83;21280;-82
2021/08/12 01:40:04;;;;;;;25.95;10.65;;;;;;;22.03;84.65;99583.27;1716725;83;21334;-83
2021/08/12 01:43:15;;;;;;;14.47;9.88;;;;;;;21.98;85.09;99585.47;1716246;83;21232;-83
2021/08/12 01:46:26;;;;;;;26.00;12.60;;;;;;;21.93;85.60;99589.62;1716099;83;21946;-83
2021/08/12 01:49:32;;;;;;;20.17;11.63;;;;;;;21.89;85.89;99589.86;1717464;83;21766;-83
2021/08/12 01:52:36;;;;;;;31.73;12.20;;;;;;;21.88;86.12;99596.55;1716083;83;21312;-82
2021/08/12 01:55:44;;;;;;;23.27;11.00;;;;;;;21.85;86.47;99585.94;1717073;83;21327;-83
2021/08/12 01:58:50;;;;;;;24.50;11.55;;;;;;;21.83;86.88;99590.91;1717547;83;21257;-82
2021/08/12 02:01:55;;;;;;;20.37;11.10;;;;;;;21.80;87.15;99591.47;1716307;83;21807;-83
2021/08/12 02:05:04;;;;;;;24.50;12.25;;;;;;;21.79;87.41;99592.59;1717485;83;21355;-83
2021/08/12 02:08:10;;;;;;;27.95;12.37;;;;;;;21.79;87.60;99598.15;1717428;83;21815;-82
2021/08/12 02:11:17;;;;;;;22.55;12.80;;;;;;;21.80;87.69;99599.83;1716201;83;21220;-83
2021/08/12 02:14:21;;;;;;;23.98;11.28;;;;;;;21.82;87.78;99602.61;1695654;83;21830;-83
2021/08/12 02:17:26;;;;;;;27.37;11.18;;;;;;;21.83;87.89;99599.27;1718174;82;21339;-84
2021/08/12 02:20:32;;;;;;;29.07;13.18;;;;;;;21.85;88.05;99602.64;1717434;83;21188;-84
2021/08/12 02:23:44;;;;;;;25.92;13.48;;;;;;;21.87;88.10;99606.81;1716303;83;21331;-84
2021/08/12 02:27:01;;;;;;;28.05;12.53;;;;;;;21.90;88.11;99605.45;1717269;83;21319;-83
2021/08/12 02:30:05;;;;;;;23.92;12.07;;;;;;;21.94;88.04;99607.44;1697980;83;21310;-84
2021/08/12 02:33:13;;;;;;;31.87;12.33;;;;;;;21.96;88.03;99607.16;1716891;83;21315;-83
2021/08/12 02:36:18;;;;;;;23.15;11.43;;;;;;;22.01;87.98;99611.92;1717486;83;21169;-84
2021/08/12 02:39:24;;;;;;;26.33;12.13;;;;;;;22.02;87.92;99615.85;1717402;83;21197;-83
2021/08/12 02:42:30;;;;;;;27.75;13.48;;;;;;;22.04;87.88;99616.41;1716189;83;21323;-82
2021/08/12 02:45:35;;;;;;;29.23;13.20;;;;;;;22.04;87.83;99615.02;1716137;83;21802;-84
2021/08/12 02:48:42;;;;;;;23.67;13.25;;;;;;;22.04;87.67;99623.38;1716131;83;21351;-84
2021/08/12 02:51:47;;;;;;;16.05;10.28;;;;;;;22.05;87.64;99626.44;1717465;83;21204;-83
2021/08/12 02:54:55;;;;;;;18.67;10.43;;;;;;;22.05;87.89;99632.56;1717542;83;21303;-82
2021/08/12 02:58:00;;;;;;;24.23;9.73;;;;;;;22.04;88.08;99634.52;1717404;83;21878;-84
2021/08/12 03:01:07;;;;;;;20.37;9.28;;;;;;;22.05;88.24;99635.34;1716781;83;21926;-83
2021/08/12 03:04:13;;;;;;;19.12;8.75;;;;;;;22.04;88.38;99628.11;1716514;83;22548;-84
2021/08/12 03:07:19;;;;;;;22.17;9.80;;;;;;;22.06;88.42;99634.23;1716063;83;21299;-83
2021/08/12 03:10:28;;;;;;;22.73;8.28;;;;;;;22.08;88.39;99635.66;1716194;83;21303;-83
2021/08/12 03:13:34;;;;;;;29.92;9.95;;;;;;;22.11;88.30;99642.13;1717329;83;21315;-82
2021/08/12 03:16:39;;;;;;;18.57;10.70;;;;;;;22.14;87.93;99649.92;1717413;83;21370;-83
2021/08/12 03:19:50;;;;;;;24.60;11.88;;;;;;;22.16;87.61;99656.08;1717465;83;21350;-82
2021/08/12 03:22:55;;;;;;;;;;;;;;;22.21;87.36;99655.28;1697057;83;21332;-82
2021/08/12 03:26:00;;;;;;;23.02;11.25;;;;;;;22.24;87.09;99661.68;1717057;83;20306;-83
2021/08/12 03:29:06;;;;;;;24.60;12.35;;;;;;;22.26;86.95;99664.22;1717544;83;21312;-84
2021/08/12 03:32:13;;;;;;;23.10;12.60;;;;;;;22.28;86.68;99664.22;1717412;83;21315;-83
2021/08/12 03:35:18;;;;;;;22.40;13.22;;;;;;;22.27;86.55;99680.66;1717479;83;21327;-83
2021/08/12 03:38:26;;;;;;;28.35;11.90;;;;;;;22.27;86.50;99674.25;1717392;83;21240;-83
2021/08/12 03:41:31;;;;;;;18.05;10.30;;;;;;;22.26;86.39;99673.97;1716563;83;21228;-84
2021/08/12 03:44:37;;;;;;;19.57;8.55;;;;;;;22.26;86.50;99676.75;1716106;83;21334;-84
2021/08/12 03:47:42;;;;;;;14.33;7.62;;;;;;;22.24;86.82;99681.18;1716072;83;21201;-84
2021/08/12 03:50:48;;;;;;;11.38;7.90;;;;;;;22.23;87.06;99675.89;1717262;83;21312;-83
2021/08/12 03:53:53;;;;;;;18.35;8.43;;;;;;;22.22;87.09;99683.41;1716941;83;21371;-82
2021/08/12 03:56:59;;;;;;;11.57;7.30;;;;;;;22.22;86.81;99682.57;1716491;83;21914;-84
2021/08/12 04:00:06;;;;;;;13.68;7.22;;;;;;;22.24;86.52;99683.13;1717355;83;21308;-84
2021/08/12 04:03:12;;;;;;;12.35;6.87;;;;;;;22.27;86.26;99684.83;1717504;83;21311;-84
2021/08/12 04:06:18;;;;;;;10.08;6.45;;;;;;;22.31;85.65;99690.72;1717370;83;21403;-83
2021/08/12 04:09:24;;;;;;;11.28;7.05;;;;;;;22.37;85.20;99690.47;1715778;83;21268;-83
2021/08/12 04:12:30;;;;;;;10.90;6.87;;;;;;;22.45;84.94;99690.52;1716673;83;21406;-84
2021/08/12 04:15:37;;;;;;;13.95;6.85;;;;;;;22.52;84.14;99690.27;1715923;83;21358;-83
2021/08/12 04:18:42;;;;;;;17.12;6.92;;;;;;;22.56;83.73;99690.86;1717570;82;21231;-83
2021/08/12 04:21:47;;;;;;;11.50;7.08;;;;;;;22.59;83.22;99691.72;1717480;83;21189;-84
2021/08/12 04:24:55;;;;;;;12.53;7.12;;;;;;;22.60;82.38;99689.77;1716428;83;21866;-83
2021/08/12 04:28:00;;;;;;;12.35;6.78;;;;;;;22.62;81.80;99693.95;1716405;83;21264;-82
2021/08/12 04:31:05;;;;;;;13.53;6.35;;;;;;;22.63;81.48;99685.89;1717306;83;22516;-84
2021/08/12 04:34:12;;;;;;;14.68;6.42;;;;;;;22.67;81.35;99695.36;1717256;83;21894;-83
2021/08/12 04:37:18;;;;;;;9.48;5.95;;;;;;;22.75;80.87;99697.37;1717581;83;21307;-84
2021/08/12 04:40:25;;;;;;;9.50;6.92;;;;;;;22.75;79.89;99699.59;1716078;83;21264;-83
2021/08/12 04:43:31;;;;;;;19.05;6.83;;;;;;;22.67;79.77;99695.36;1718171;83;21291;-83
2021/08/12 04:46:36;;;;;;;11.45;6.85;;;;;;;22.65;79.60;99698.16;1717793;83;22397;-83
2021/08/12 04:49:42;;;;;;;14.70;6.62;;;;;;;22.64;79.05;99698.71;1717433;83;21330;-84
2021/08/12 04:52:46;;;;;;;11.20;6.22;;;;;;;22.68;78.79;99694.84;1717363;83;21322;-84
2021/08/12 04:55:53;;;;;;;9.53;6.28;;;;;;;22.70;78.24;99699.02;1716409;83;21207;-83
2021/08/12 04:58:59;;;;;;;12.93;6.47;;;;;;;22.76;78.14;99708.23;1717569;83;21236;-83
2021/08/12 05:02:06;;;;;;;11.90;7.30;;;;;;;22.91;77.70;99711.15;1716811;83;21319;-84
2021/08/12 05:05:11;;;;;;;15.48;7.20;;;;;;;23.12;76.89;99707.04;1716041;83;21331;-85
2021/08/12 05:08:18;;;;;;;18.82;7.28;;;;;;;23.32;75.52;99711.84;1715914;83;21315;-82
2021/08/12 05:11:24;;;;;;;15.43;8.30;;;;;;;23.50;75.53;99711.33;1717455;83;21310;-82
2021/08/12 05:14:31;;;;;;;14.15;8.05;;;;;;;23.69;74.00;99719.48;1716051;82;21771;-83
2021/08/12 05:17:37;;;;;;;16.02;8.35;;;;;;;23.82;73.12;99718.11;1717362;83;21343;-83
2021/08/12 05:20:43;;;;;;;17.90;7.55;;;;;;;23.95;72.41;99715.34;1717676;82;21834;-83
2021/08/12 05:23:50;;;;;;;25.35;9.28;;;;;;;24.09;72.40;99716.45;1715954;83;21307;-84
2021/08/12 05:26:57;;;;;;;17.85;8.13;;;;;;;24.23;70.94;99725.11;1717136;82;21331;-83
2021/08/12 05:30:03;;;;;;;18.73;9.78;;;;;;;24.36;70.65;99722.28;1691981;83;22637;-83
2021/08/12 05:33:08;;;;;;;20.75;9.60;;;;;;;24.44;69.70;99725.94;1686079;85;21930;-83
2021/08/12 05:36:14;;;;;;;28.23;9.20;;;;;;;24.53;68.80;99723.41;1713742;83;21209;-79
2021/08/12 05:39:21;;;;;;;17.60;9.88;;;;;;;24.59;68.78;99720.31;1713036;83;21279;-80
2021/08/12 05:42:28;;;;;;;14.68;10.20;;;;;;;24.64;68.20;99714.70;1714784;83;21181;-80
2021/08/12 05:45:35;;;;;;;14.15;8.25;;;;;;;24.69;68.11;99716.09;1645824;84;21303;-80
2021/08/12 05:48:41;;;;;;;21.10;8.70;;;;;;;24.77;67.86;99720.83;1680120;85;21224;-83
2021/08/12 05:51:47;;;;;;;15.55;8.73;;;;;;;24.82;67.82;99720.81;1681373;85;21588;-82
2021/08/12 05:54:52;;;;;;;18.07;8.15;;;;;;;24.84;67.44;99718.03;1675720;85;21306;-82
2021/08/12 05:57:58;;;;;;;20.32;8.40;;;;;;;24.88;67.83;99717.70;1665529;85;21827;-82
2021/08/12 06:01:03;;;;;;;18.35;8.60;;;;;;;24.98;67.55;99723.82;1666793;85;21338;-83
2021/08/12 06:04:09;;;;;;;22.00;11.05;;;;;;;25.06;67.01;99727.44;1682571;85;21685;-84
2021/08/12 06:07:13;;;;;;;20.50;8.75;;;;;;;25.12;67.12;99720.72;1676125;85;22447;-80
2021/08/12 06:10:21;;;;;;;17.42;8.00;;;;;;;25.26;66.74;99727.93;1679943;85;21885;-82
2021/08/12 06:13:26;;;;;;;14.87;7.60;;;;;;;25.42;65.90;99736.53;1671043;85;21354;-83
2021/08/12 06:16:33;;;;;;;17.48;9.05;;;;;;;25.54;65.55;99722.17;1666826;85;21351;-81
2021/08/12 06:19:40;;;;;;;23.45;8.30;;;;;;;25.67;65.30;99734.14;1674197;85;21177;-83
2021/08/12 06:22:45;;;;;;;16.17;8.08;;;;;;;25.78;64.86;99738.30;1675003;85;21343;-84
2021/08/12 06:25:54;;;;;;;15.18;8.15;;;;;;;25.91;64.61;99741.85;1678841;85;21843;-82
2021/08/12 06:29:00;;;;;;;19.45;7.85;;;;;;;26.05;63.04;99751.83;1674773;85;21350;-83
2021/08/12 06:32:06;;;;;;;22.87;9.05;;;;;;;26.18;62.43;99743.59;1676272;85;21330;-84
2021/08/12 06:35:14;;;;;;;18.57;9.80;;;;;;;26.32;62.86;99739.55;1679687;83;21335;-81
2021/08/12 06:38:20;;;;;;;18.30;8.98;;;;;;;26.43;61.79;99741.15;1676959;85;21290;-82
2021/08/12 06:41:25;;;;;;;19.52;9.50;;;;;;;26.44;60.69;99739.18;1683393;85;21304;-83
2021/08/12 06:44:34;;;;;;;20.85;9.95;;;;;;;26.35;60.81;99749.33;1682439;85;21224;-82
2021/08/12 06:47:41;;;;;;;28.77;11.48;;;;;;;26.26;60.87;99757.56;1656650;85;21319;-83
2021/08/12 06:50:50;;;;;;;23.92;11.35;;;;;;;26.23;60.69;99751.13;1655063;85;21488;-83
2021/08/12 06:53:57;;;;;;;27.65;10.35;;;;;;;26.31;60.49;99746.87;1675796;85;21189;-82
2021/08/12 06:57:02;;;;;;;24.45;10.35;;;;;;;26.42;59.20;99749.27;1674999;85;21372;-83
2021/08/12 07:00:08;;;;;;;22.35;9.80;;;;;;;26.54;59.87;99754.53;1677206;85;21348;-83
2021/08/12 07:03:14;;;;;;;23.00;9.25;;;;;;;26.72;59.13;99750.98;1681511;85;21291;-83
2021/08/12 07:06:21;;;;;;;15.20;7.97;;;;;;;26.88;58.86;99753.04;1655275;85;21887;-81
2021/08/12 07:09:26;;;;;;;16.42;9.18;;;;;;;27.03;56.36;99753.42;1682168;85;21859;-81
2021/08/12 07:12:32;;;;;;;21.75;10.05;;;;;;;27.10;55.32;99745.53;1675969;85;21300;-82
2021/08/12 07:15:38;;;;;;;23.20;9.10;;;;;;;27.16;55.50;99747.70;1674415;84;21193;-83
2021/08/12 07:18:45;;;;;;;18.85;6.62;;;;;;;27.30;55.29;99751.45;1681428;85;21268;-83
2021/08/12 07:21:52;;;;;;;12.20;5.78;;;;;;;27.41;53.03;99759.98;1677781;84;21379;-84
2021/08/12 07:24:58;;;;;;;16.90;5.47;;;;;;;27.49;52.17;99747.27;1684518;85;21335;-82
2021/08/12 07:28:03;;;;;;;11.38;5.20;;;;;;;27.58;51.60;99750.23;1682030;85;21823;-82
2021/08/12 07:31:11;;;;;;;10.78;5.33;;;;;;;27.66;51.60;99751.77;1713242;83;21197;-82
2021/08/12 07:34:16;;;;;;;10.08;3.92;;;;;;;27.75;51.23;99740.14;1711769;83;21291;-82
2021/08/12 07:37:22;;;;;;;12.53;4.03;;;;;;;27.78;50.70;99743.50;1712171;83;21938;-80
2021/08/12 07:40:28;;;;;;;9.45;3.60;;;;;;;27.79;50.35;99744.59;1713376;83;21306;-82
2021/08/12 07:43:34;;;;;;;8.45;3.47;;;;;;;27.83;49.71;99751.86;1715509;82;21666;-81
2021/08/12 07:46:39;;;;;;;10.55;3.58;;;;;;;27.89;48.42;99759.06;1708886;82;21307;-82
2021/08/12 07:49:46;;;;;;;7.72;3.15;;;;;;;27.92;47.50;99753.67;1683145;85;21284;-83
2021/08/12 07:52:54;;;;;;;7.12;3.47;;;;;;;27.94;48.03;99750.55;1714926;83;21307;-82
2021/08/12 07:56:00;;;;;;;9.88;3.00;;;;;;;27.99;47.19;99751.87;1713123;83;21200;-83
2021/08/12 07:59:06;;;;;;;12.05;3.60;;;;;;;28.04;47.00;99757.41;1713079;83;21306;-82
2021/08/12 08:02:12;;;;;;;9.53;3.20;;;;;;;28.05;48.12;99763.32;1709845;81;21850;-80
2021/08/12 08:05:26;;;;;;;7.70;3.10;;;;;;;28.12;47.92;99755.31;1713670;83;21339;-82
2021/08/12 08:08:27;;;;;;;4.58;2.52;;;;;;;28.15;46.40;99756.69;1712824;83;21314;-82
2021/08/12 08:11:33;;;;;;;7.15;3.47;;;;;;;28.19;45.68;99762.80;1681090;85;21232;-83
2021/08/12 08:14:40;;;;;;;11.50;3.47;;;;;;;28.23;46.20;99756.84;1713818;82;21830;-84
2021/08/12 08:17:45;;;;;;;10.15;3.12;;;;;;;28.31;46.72;99764.29;1712399;83;21197;-83
2021/08/12 08:20:51;;;;;;;11.65;3.10;;;;;;;28.39;45.50;99770.08;1673101;85;21177;-82
2021/08/12 08:23:57;;;;;;;4.45;2.90;;;;;;;28.43;43.76;99781.56;1715146;82;21177;-83
2021/08/12 08:27:06;;;;;;;5.70;2.90;;;;;;;28.45;43.73;99786.30;1657243;86;21351;-84
2021/08/12 08:30:11;;;;;;;10.05;3.77;;;;;;;28.49;44.91;99769.06;1695906;83;21196;-82
2021/08/12 08:33:18;;;;;;;9.35;3.25;;;;;;;28.55;44.40;99781.89;1712305;83;21243;-82
2021/08/12 08:36:25;;;;;;;7.58;3.52;;;;;;;28.61;43.76;99780.68;1714996;83;21197;-83
2021/08/12 08:39:31;;;;;;;11.20;3.42;;;;;;;28.66;44.20;99783.97;1714163;83;21322;-82
2021/08/12 08:42:38;;;;;;;9.93;3.30;;;;;;;28.70;43.08;99802.74;1714499;83;21350;-83
2021/08/12 08:45:44;;;;;;;4.65;3.25;;;;;;;28.70;43.08;99802.74;1714732;83;21334;-84
2021/08/12 08:48:49;;;;;;;7.17;3.37;;;;;;;28.67;39.28;99796.89;1712900;83;21256;-82
2021/08/12 08:51:55;;;;;;;12.50;4.60;;;;;;;28.68;40.74;99803.61;1684926;83;21241;-82
2021/08/12 08:55:01;;;;;;;12.25;4.55;;;;;;;28.72;40.41;99799.61;1715166;83;21169;-83
2021/08/12 08:58:07;;;;;;;10.28;4.33;;;;;;;28.79;40.28;99798.61;1715187;83;21470;-82
2021/08/12 09:01:13;;;;;;;9.93;5.47;;;;;;;28.83;38.46;99804.47;1713300;83;21850;-82
2021/08/12 09:04:21;;;;;;;15.48;6.33;;;;;;;28.79;38.91;99819.72;1716838;83;21340;-82
2021/08/12 09:07:29;;;;;;;14.10;6.37;;;;;;;28.79;38.91;99819.72;1683960;85;21334;-81
2021/08/12 09:10:38;;;;;;;13.13;5.37;;;;;;;28.69;38.87;99828.35;1715545;82;21796;-82
2021/08/12 09:13:43;;;;;;;8.75;4.67;;;;;;;28.69;38.87;99828.35;1686391;85;21259;-83
2021/08/12 09:16:50;;;;;;;8.23;4.92;;;;;;;28.71;37.42;99832.55;1714760;81;21192;-82
2021/08/12 09:20:22;;;;;;;15.80;4.35;;;;;;;28.70;36.66;99824.39;1714960;83;21287;-81
2021/08/12 09:23:37;;;;;;;10.55;4.10;;;;;;;28.73;36.63;99833.63;1711603;83;21570;-81
2021/08/12 09:26:47;;;;;;;6.50;3.60;;;;;;;28.72;37.74;99826.34;1712669;83;21208;-81
2021/08/12 09:29:52;;;;;;;10.80;4.33;;;;;;;28.81;37.36;99839.14;1713986;81;21318;-80
2021/08/12 09:32:57;;;;;;;9.60;4.08;;;;;;;28.81;37.36;99839.14;1711977;81;21616;-80
2021/08/12 09:36:02;;;;;;;14.55;3.90;;;;;;;28.89;37.71;99831.36;1714515;82;21582;-83
2021/08/12 09:39:26;;;;;;;9.90;4.00;;;;;;;28.97;37.11;99820.84;1714938;82;21177;-80
2021/08/12 09:42:32;;;;;;;4.78;3.22;;;;;;;28.97;37.11;99820.84;1713828;83;21348;-83
2021/08/12 09:45:39;;;;;;;5.12;2.87;;;;;;;28.97;37.93;99827.88;1665944;83;21754;-83
2021/08/12 09:48:47;;;;;;;6.90;2.77;;;;;;;28.97;37.93;99827.88;1716778;83;21256;-83
2021/08/12 09:51:52;;;;;;;5.35;2.75;;;;;;;29.02;36.55;99853.11;1716080;83;22605;-82
2021/08/12 09:55:23;;;;;;;15.98;3.20;;;;;;;29.05;36.86;99847.45;1715828;83;21228;-82
2021/08/12 09:58:27;;;;;;;6.08;3.37;;;;;;;29.06;36.62;99830.81;1715999;83;22734;-82
2021/08/12 10:01:34;;;;;;;15.70;4.58;;;;;;;29.07;36.95;99830.49;1714788;83;21200;-82
2021/08/12 10:04:40;;;;;;;15.35;6.05;;;;;;;29.11;40.87;99837.17;1715908;83;21216;-83
2021/08/12 10:07:48;;;;;;;7.53;4.92;;;;;;;29.11;40.87;99837.17;1673850;85;21315;-83
2021/08/12 10:10:55;;;;;;;14.47;4.75;;;;;;;29.13;40.51;99839.13;1670808;85;21296;-82
2021/08/12 10:14:09;;;;;;;8.60;4.55;;;;;;;29.15;40.88;99836.81;1661739;85;21256;-82
2021/08/12 10:17:15;;;;;;;6.80;3.98;;;;;;;29.23;38.29;99841.73;1654260;86;21957;-82
2021/08/12 10:20:31;;;;;;;6.47;3.90;;;;;;;29.21;38.47;99842.60;1687106;85;21406;-83
2021/08/12 10:23:35;;;;;;;11.00;4.10;;;;;;;29.18;39.08;99853.10;1682578;85;21360;-82
2021/08/12 10:26:41;;;;;;;6.65;3.95;;;;;;;29.21;39.44;99844.02;1716205;82;21307;-82
2021/08/12 10:29:48;;;;;;;9.48;4.45;;;;;;;29.24;38.99;99839.75;1714928;83;21839;-82
2021/08/12 10:33:04;;;;;;;8.83;3.98;;;;;;;29.28;38.56;99836.00;1714917;83;21210;-80
2021/08/12 10:36:09;;;;;;;8.18;4.10;;;;;;;29.31;37.99;99851.42;1679314;85;21385;-83
2021/08/12 10:39:16;;;;;;;10.15;3.77;;;;;;;29.27;38.94;99856.87;1716261;83;21605;-81
2021/08/12 10:42:24;;;;;;;12.85;3.75;;;;;;;29.24;38.45;99850.44;1716287;83;21347;-84
2021/08/12 10:45:31;;;;;;;6.67;3.75;;;;;;;29.26;39.17;99860.80;1697685;83;21184;-83
2021/08/12 10:48:38;;;;;;;16.25;4.00;;;;;;;29.25;38.57;99848.45;1713103;82;21180;-83
2021/08/12 10:51:53;;;;;;;6.92;3.95;;;;;;;29.23;39.00;99857.23;1715336;81;21243;-83
2021/08/12 10:54:59;;;;;;;9.00;4.72;;;;;;;29.26;39.92;99854.34;1668340;85;21311;-83
2021/08/12 10:58:29;;;;;;;17.02;5.37;;;;;;;29.33;39.92;99852.54;1717253;83;21843;-84
2021/08/12 11:01:41;;;;;;;14.63;4.80;;;;;;;29.41;38.61;99858.87;1715673;83;21306;-82
2021/08/12 11:04:58;;;;;;;11.63;4.95;;;;;;;29.44;37.40;99849.19;1715594;83;21828;-83
2021/08/12 11:08:04;;;;;;;7.47;5.08;;;;;;;29.48;38.51;99859.27;1714697;83;21224;-82
2021/08/12 11:11:11;;;;;;;12.33;4.47;;;;;;;29.49;36.99;99850.49;1711965;83;21256;-82
2021/08/12 11:14:20;;;;;;;7.22;4.15;;;;;;;29.48;36.87;99857.86;1715269;83;21172;-82
2021/08/12 11:17:27;;;;;;;8.88;4.53;;;;;;;29.46;36.82;99854.53;1715957;83;21241;-82
2021/08/12 11:20:42;;;;;;;6.72;4.40;;;;;;;29.45;36.98;99850.88;1715284;83;21187;-83
2021/08/12 11:23:48;;;;;;;9.55;4.65;;;;;;;29.48;35.83;99850.81;1713600;83;21168;-83
2021/08/12 11:27:01;;;;;;;14.18;5.40;;;;;;;29.53;37.86;99852.12;1715991;82;21188;-83
2021/08/12 11:30:26;;;;;;;11.83;5.10;;;;;;;29.55;38.08;99865.37;1702628;83;21244;-82
2021/08/12 11:33:34;;;;;;;13.53;4.50;;;;;;;29.54;37.25;99852.38;1716202;83;21248;-81
2021/08/12 11:36:41;;;;;;;11.35;5.28;;;;;;;29.56;36.90;99857.75;1714209;83;21223;-83
2021/08/12 11:40:11;;;;;;;10.50;4.20;;;;;;;29.55;37.94;99856.91;1714541;83;21215;-81
2021/08/12 11:43:17;;;;;;;10.85;4.80;;;;;;;29.51;38.06;99855.26;1669606;85;21351;-83
2021/08/12 11:46:22;;;;;;;10.63;4.62;;;;;;;29.42;38.05;99850.09;1681741;85;21311;-83
2021/08/12 11:49:27;;;;;;;9.30;3.80;;;;;;;29.38;38.01;99852.44;1682167;85;21149;-83
2021/08/12 11:52:38;;;;;;;8.83;4.15;;;;;;;29.33;38.40;99851.13;1670358;85;21196;-84
2021/08/12 11:55:44;;;;;;;;;;;;;;;29.32;39.03;99841.02;1683384;85;21331;-83
2021/08/12 11:58:54;;;;;;;7.70;3.85;;;;;;;29.26;38.70;99850.95;1679347;85;20603;-83
2021/08/12 12:01:59;;;;;;;10.58;4.22;;;;;;;29.21;38.89;99858.67;1681946;85;21232;-82
2021/08/12 12:05:06;;;;;;;9.78;3.70;;;;;;;29.25;39.12;99856.91;1661105;85;21232;-83
2021/08/12 12:08:16;;;;;;;8.85;4.35;;;;;;;29.31;38.97;99854.81;1661095;85;21867;-83
2021/08/12 12:11:23;;;;;;;6.58;3.70;;;;;;;29.39;39.22;99864.79;1676421;85;21192;-82
2021/08/12 12:14:30;;;;;;;5.08;3.27;;;;;;;29.42;39.25;99859.95;1674067;85;21348;-83
2021/08/12 12:17:36;;;;;;;8.85;3.65;;;;;;;29.42;39.15;99864.17;1653987;87;21257;-83
2021/08/12 12:20:45;;;;;;;10.20;3.52;;;;;;;29.42;39.40;99856.30;1647503;86;21799;-83
2021/08/12 12:23:52;;;;;;;5.10;3.05;;;;;;;29.35;39.26;99862.33;1654677;86;21204;-83
2021/08/12 12:27:04;;;;;;;5.20;3.30;;;;;;;29.35;39.26;99862.33;1683560;85;21216;-82
2021/08/12 12:30:19;;;;;;;13.18;3.62;;;;;;;29.31;38.82;99864.67;1681730;85;21302;-83
2021/08/12 12:33:26;;;;;;;5.47;3.30;;;;;;;29.29;39.38;99870.63;1681233;84;21312;-83
2021/08/12 12:36:33;;;;;;;10.40;3.83;;;;;;;29.28;39.35;99868.39;1692701;84;21300;-82
2021/08/12 12:39:39;;;;;;;11.22;3.80;;;;;;;29.33;38.79;99879.30;1692965;84;21743;-82
2021/08/12 12:42:45;;;;;;;7.37;3.98;;;;;;;29.32;39.64;99879.87;1688101;84;21299;-82
2021/08/12 12:45:57;;;;;;;10.53;3.55;;;;;;;29.31;39.22;99876.77;1689391;83;21192;-81
2021/08/12 12:49:04;;;;;;;9.65;3.60;;;;;;;29.29;39.88;99883.30;1694295;84;21176;-83
2021/08/12 12:52:17;;;;;;;6.05;3.60;;;;;;;29.29;39.38;99881.31;1693574;84;21216;-81
2021/08/12 12:55:28;;;;;;;6.85;3.30;;;;;;;29.27;39.24;99892.08;1693620;84;21355;-82
2021/08/12 12:58:40;;;;;;;7.17;3.87;;;;;;;29.27;39.24;99892.08;1676539;84;21333;-84
2021/08/12 13:01:46;;;;;;;8.98;3.35;;;;;;;29.28;39.06;99893.73;1662861;85;21331;-83
2021/08/12 13:04:50;;;;;;;10.18;3.65;;;;;;;29.26;39.35;99889.55;1670485;84;21354;-83
2021/08/12 13:07:56;;;;;;;4.37;3.10;;;;;;;29.27;39.71;99893.48;1694550;84;21283;-83
2021/08/12 13:11:12;;;;;;;7.37;3.77;;;;;;;29.31;39.65;99897.06;1668454;84;21302;-84
2021/08/12 13:14:22;;;;;;;8.78;3.92;;;;;;;29.24;39.63;99888.45;1693688;84;21318;-84
2021/08/12 13:17:38;;;;;;;8.05;3.83;;;;;;;29.28;40.32;99892.33;1670730;84;21355;-84
2021/08/12 13:20:49;;;;;;;13.83;3.70;;;;;;;29.26;39.62;99895.18;1693222;84;21184;-83
2021/08/12 13:24:00;;;;;;;6.58;3.52;;;;;;;29.16;39.41;99886.35;1694026;84;21374;-83
2021/08/12 13:27:07;;;;;;;9.68;4.10;;;;;;;28.93;38.74;99892.36;1683657;84;21211;-82
2021/08/12 13:30:13;;;;;;;6.90;3.58;;;;;;;28.93;38.74;99892.36;1663732;83;21339;-83
2021/08/12 13:33:35;;;;;;;10.65;4.28;;;;;;;28.72;40.42;99887.67;1683154;85;21176;-84
2021/08/12 13:36:43;;;;;;;6.50;3.15;;;;;;;28.62;40.25;99887.84;1685333;85;21197;-83
2021/08/12 13:39:48;;;;;;;8.05;3.70;;;;;;;28.62;40.25;99887.84;1716131;83;21882;-83
2021/08/12 13:42:55;;;;;;;11.28;3.52;;;;;;;28.56;40.99;99891.89;1715367;83;21319;-83
2021/08/12 13:46:01;;;;;;;7.45;3.90;;;;;;;28.49;41.21;99888.05;1716332;83;21272;-83
2021/08/12 13:49:06;;;;;;;7.15;3.83;;;;;;;28.45;40.74;99881.35;1715758;83;21764;-83
2021/08/12 13:52:13;;;;;;;8.40;3.77;;;;;;;28.40;40.60;99879.20;1715707;83;21255;-83
2021/08/12 13:55:19;;;;;;;10.13;3.95;;;;;;;28.29;41.01;99881.30;1717272;83;22542;-85
2021/08/12 13:58:24;;;;;;;9.35;3.80;;;;;;;28.29;41.01;99881.30;1717049;83;21346;-84
2021/08/12 14:01:29;;;;;;;8.58;3.95;;;;;;;28.22;42.11;99873.80;1716082;83;21256;-85
2021/08/12 14:04:36;;;;;;;8.60;3.83;;;;;;;28.18;41.64;99871.33;1715793;83;21271;-83
2021/08/12 14:07:42;;;;;;;7.40;3.83;;;;;;;28.12;41.91;99875.36;1717173;83;21838;-84
2021/08/12 14:10:50;;;;;;;7.97;3.67;;;;;;;28.09;42.12;99879.64;1717103;83;21850;-83
2021/08/12 14:13:56;;;;;;;7.20;4.15;;;;;;;28.09;41.52;99877.37;1716093;83;21208;-82
2021/08/12 14:17:02;;;;;;;10.85;4.12;;;;;;;28.06;41.01;99874.61;1716993;83;21193;-84
2021/08/12 14:20:07;;;;;;;9.65;4.00;;;;;;;28.03;42.16;99876.03;1717198;83;21223;-82
2021/08/12 14:23:13;;;;;;;7.03;4.42;;;;;;;27.99;42.24;99876.38;1716680;83;21724;-83
2021/08/12 14:26:22;;;;;;;8.75;4.45;;;;;;;27.95;41.27;99875.33;1717200;83;21918;-82
2021/08/12 14:29:28;;;;;;;;;;;;;;;27.92;42.05;99871.70;1720320;80;21224;-83
2021/08/12 14:32:33;;;;;;;7.40;4.08;;;;;;;27.93;42.08;99873.95;1717334;83;20689;-82
2021/08/12 14:35:39;;;;;;;7.58;4.50;;;;;;;27.88;40.49;99873.45;1718342;83;21284;-84